createdAt,value
2018-06-19T00:02:23.985Z,4.03
2018-06-19T00:04:55.559Z,3.40
2018-06-19T00:07:27.182Z,3.97
2018-06-19T00:09:58.880Z,3.40
2018-06-19T00:12:30.425Z,3.77
2018-06-19T00:15:02.099Z,3.90
2018-06-19T00:17:33.631Z,3.60
2018-06-19T00:20:05.554Z,3.73
2018-06-19T00:22:37.115Z,3.53
2018-06-19T00:25:08.921Z,4.57
2018-06-19T00:27:40.593Z,3.70
2018-06-19T00:30:12.171Z,3.80
2018-06-19T00:32:43.894Z,4.13
2018-06-19T00:35:15.445Z,3.50
2018-06-19T00:37:47.293Z,4.43
2018-06-19T00:40:19.265Z,3.90
2018-06-19T00:42:51.208Z,4.97
2018-06-19T00:45:22.816Z,4.10
2018-06-19T00:47:54.705Z,4.50
2018-06-19T00:50:26.301Z,4.90
2018-06-19T00:52:57.922Z,4.50
2018-06-19T00:55:29.678Z,4.27
2018-06-19T00:58:01.274Z,4.30
2018-06-19T01:00:32.933Z,3.50
2018-06-19T01:03:04.433Z,3.83
2018-06-19T01:05:36.067Z,4.20
2018-06-19T01:08:07.537Z,4.33
2018-06-19T01:10:39.148Z,4.00
2018-06-19T01:13:10.651Z,3.93
2018-06-19T01:15:42.360Z,3.63
2018-06-19T01:18:14.018Z,4.60
2018-06-19T01:20:45.589Z,4.90
2018-06-19T01:23:17.072Z,4.77
2018-06-19T01:25:48.780Z,4.67
2018-06-19T01:28:20.285Z,4.83
2018-06-19T01:30:51.898Z,4.40
2018-06-19T01:33:23.554Z,5.20
2018-06-19T01:35:55.228Z,4.60
2018-06-19T01:38:26.814Z,4.53
2018-06-19T01:40:58.493Z,4.53
2018-06-19T01:43:30.125Z,4.47
2018-06-19T01:46:01.906Z,3.93
2018-06-19T01:48:33.470Z,4.90
2018-06-19T01:51:05.137Z,4.13
2018-06-19T01:53:36.670Z,5.17
2018-06-19T01:56:08.357Z,4.53
2018-06-19T01:58:39.995Z,4.93
2018-06-19T02:01:11.665Z,4.60
2018-06-19T02:03:43.320Z,4.30
2018-06-19T02:06:14.977Z,5.07
2018-06-19T02:08:46.653Z,4.70
2018-06-19T02:11:18.303Z,4.30
2018-06-19T02:13:49.904Z,3.60
2018-06-19T02:16:21.538Z,4.10
2018-06-19T02:18:53.216Z,3.93
2018-06-19T02:21:24.786Z,4.83
2018-06-19T02:23:56.471Z,4.53
2018-06-19T02:26:27.939Z,3.17
2018-06-19T02:28:59.577Z,3.83
2018-06-19T02:31:31.206Z,4.13
2018-06-19T02:34:02.845Z,4.13
2018-06-19T02:36:34.436Z,3.83
2018-06-19T02:39:08.489Z,3.83
2018-06-19T02:41:40.418Z,4.03
2018-06-19T02:44:12.180Z,3.63
2018-06-19T02:46:43.741Z,3.80
2018-06-19T02:49:15.354Z,4.20
2018-06-19T02:51:46.978Z,4.60
2018-06-19T02:54:18.702Z,3.80
2018-06-19T02:56:50.286Z,4.17
2018-06-19T02:59:21.867Z,4.37
2018-06-19T03:01:53.566Z,3.97
2018-06-19T03:04:25.108Z,4.87
2018-06-19T03:06:56.909Z,4.60
2018-06-19T03:09:28.525Z,4.67
2018-06-19T03:12:00.199Z,3.80
2018-06-19T03:14:31.729Z,3.70
2018-06-19T03:17:03.425Z,3.30
2018-06-19T03:19:34.907Z,4.20
2018-06-19T03:22:06.649Z,3.83
2018-06-19T03:24:38.393Z,4.17
2018-06-19T03:27:09.978Z,4.60
2018-06-19T03:29:41.644Z,4.93
2018-06-19T03:32:13.244Z,5.27
2018-06-19T03:34:44.893Z,3.97
2018-06-19T03:37:16.454Z,4.37
2018-06-19T03:39:47.961Z,3.70
2018-06-19T03:42:19.482Z,4.33
2018-06-19T03:44:51.220Z,4.50
2018-06-19T03:47:22.974Z,3.97
2018-06-19T03:49:54.601Z,3.80
2018-06-19T03:52:26.377Z,4.83
2018-06-19T03:54:58.337Z,3.87
2018-06-19T03:57:30.009Z,4.27
2018-06-19T04:00:01.671Z,4.37
2018-06-19T04:02:33.326Z,4.23
2018-06-19T04:05:04.830Z,4.00
2018-06-19T04:07:36.461Z,5.20
2018-06-19T04:10:08.205Z,4.27
2018-06-19T04:12:39.951Z,4.50
2018-06-19T04:15:11.553Z,4.27
2018-06-19T04:17:43.188Z,4.00
2018-06-19T04:20:14.777Z,4.33
2018-06-19T04:22:46.401Z,4.50
2018-06-19T04:25:17.986Z,4.37
2018-06-19T04:27:49.612Z,5.00
2018-06-19T04:30:21.298Z,4.70
2018-06-19T04:32:52.885Z,4.73
2018-06-19T04:35:24.509Z,5.70
2018-06-19T04:37:56.207Z,4.90
2018-06-19T04:40:27.736Z,4.33
2018-06-19T04:42:59.318Z,5.17
2018-06-19T04:45:30.339Z,3.93
2018-06-19T04:48:01.932Z,4.87
2018-06-19T04:50:33.414Z,5.30
2018-06-19T04:53:05.124Z,4.17
2018-06-19T04:55:36.796Z,2.97
2018-06-19T04:58:08.362Z,4.57
2018-06-19T05:00:39.901Z,3.97
2018-06-19T05:03:11.471Z,5.17
2018-06-19T05:05:43.183Z,3.07
2018-06-19T05:08:14.748Z,2.50
2018-06-19T05:10:46.368Z,2.37
2018-06-19T05:13:17.980Z,2.20
2018-06-19T05:15:49.581Z,4.07
2018-06-19T05:18:21.522Z,4.23
2018-06-19T05:20:53.121Z,3.37
2018-06-19T05:23:24.808Z,4.70
2018-06-19T05:25:56.325Z,3.03
2018-06-19T05:28:28.010Z,4.27
2018-06-19T05:30:59.029Z,4.13
2018-06-19T05:33:30.495Z,4.07
2018-06-19T05:36:02.117Z,3.67
2018-06-19T05:38:33.869Z,4.10
2018-06-19T05:41:05.450Z,3.67
2018-06-19T05:43:37.249Z,3.60
2018-06-19T05:46:08.987Z,4.33
2018-06-19T05:48:40.646Z,4.10
2018-06-19T05:51:11.713Z,3.53
2018-06-19T05:53:43.443Z,3.03
2018-06-19T05:56:15.099Z,2.70
2018-06-19T05:58:46.694Z,2.60
2018-06-19T06:01:18.425Z,4.07
2018-06-19T06:03:49.996Z,3.40
2018-06-19T06:06:21.703Z,3.20
2018-06-19T06:08:53.282Z,3.83
2018-06-19T06:11:25.018Z,2.63
2018-06-19T06:13:56.756Z,2.13
2018-06-19T06:16:28.422Z,2.57
2018-06-19T06:19:00.125Z,2.87
2018-06-19T06:21:31.698Z,3.83
2018-06-19T06:24:03.377Z,3.60
2018-06-19T06:26:35.080Z,2.80
2018-06-19T06:29:06.625Z,2.37
2018-06-19T06:31:38.358Z,2.33
2018-06-19T06:34:09.898Z,2.80
2018-06-19T06:36:41.613Z,2.43
2018-06-19T06:39:13.260Z,2.27
2018-06-19T06:41:44.929Z,2.20
2018-06-19T06:44:16.886Z,2.33
2018-06-19T06:46:48.608Z,2.60
2018-06-19T06:49:20.265Z,2.43
2018-06-19T06:51:52.017Z,2.40
2018-06-19T06:54:23.566Z,2.67
2018-06-19T06:56:58.984Z,2.10
2018-06-19T06:59:31.413Z,2.70
2018-06-19T07:02:03.015Z,2.80
2018-06-19T07:04:34.716Z,3.47
2018-06-19T07:07:06.334Z,2.50
2018-06-19T07:09:38.002Z,2.00
2018-06-19T07:12:09.845Z,2.20
2018-06-19T07:14:41.453Z,2.20
2018-06-19T07:17:13.839Z,2.30
2018-06-19T07:19:45.504Z,3.40
2018-06-19T07:22:17.113Z,2.50
2018-06-19T07:24:48.810Z,1.80
2018-06-19T07:27:20.467Z,1.97
2018-06-19T07:29:51.972Z,1.83
2018-06-19T07:32:23.669Z,1.43
2018-06-19T07:34:55.233Z,1.83
2018-06-19T07:37:26.990Z,2.30
2018-06-19T07:39:58.510Z,1.77
2018-06-19T07:42:30.192Z,2.23
2018-06-19T07:45:01.848Z,1.80
2018-06-19T07:47:34.187Z,1.90
2018-06-19T07:50:06.178Z,1.70
2018-06-19T07:52:37.848Z,2.10
2018-06-19T07:55:09.349Z,1.40
2018-06-19T07:57:40.989Z,2.20
2018-06-19T08:00:12.501Z,1.20
2018-06-19T08:02:44.102Z,1.80
2018-06-19T08:05:15.733Z,1.50
2018-06-19T08:07:47.306Z,1.07
2018-06-19T08:10:18.893Z,1.73
2018-06-19T08:12:50.525Z,1.40
2018-06-19T08:15:22.200Z,1.67
2018-06-19T08:17:53.798Z,1.47
2018-06-19T08:20:25.408Z,1.50
2018-06-19T08:22:57.337Z,1.20
2018-06-19T08:25:28.849Z,1.37
2018-06-19T08:28:00.528Z,1.23
2018-06-19T08:30:32.042Z,1.73
2018-06-19T08:33:03.671Z,1.80
2018-06-19T08:35:35.345Z,1.60
2018-06-19T08:38:07.152Z,1.40
2018-06-19T08:40:38.812Z,1.20
2018-06-19T08:43:10.478Z,0.90
2018-06-19T08:45:42.250Z,1.00
2018-06-19T08:48:13.820Z,1.20
2018-06-19T08:50:45.540Z,1.20
2018-06-19T08:53:17.232Z,1.23
2018-06-19T08:55:48.819Z,1.50
2018-06-19T08:58:20.511Z,1.00
2018-06-19T09:00:52.168Z,1.30
2018-06-19T09:03:23.726Z,1.40
2018-06-19T09:05:55.352Z,1.27
2018-06-19T09:08:27.157Z,2.20
2018-06-19T09:10:58.808Z,1.60
2018-06-19T09:13:30.481Z,1.30
2018-06-19T09:16:02.208Z,1.10
2018-06-19T09:18:33.786Z,1.30
2018-06-19T09:21:05.812Z,1.03
2018-06-19T09:23:37.717Z,1.10
2018-06-19T09:26:09.857Z,0.93
2018-06-19T09:28:41.441Z,1.30
2018-06-19T09:31:13.236Z,1.17
2018-06-19T09:33:44.812Z,0.90
2018-06-19T09:36:17.594Z,1.20
2018-06-19T09:38:49.265Z,1.30
2018-06-19T09:41:20.886Z,1.20
2018-06-19T09:43:52.632Z,1.50
2018-06-19T09:46:24.314Z,1.30
2018-06-19T09:48:56.237Z,1.27
2018-06-19T09:51:28.059Z,1.20
2018-06-19T09:53:59.905Z,0.97
2018-06-19T09:56:31.531Z,1.30
2018-06-19T09:59:03.255Z,1.40
2018-06-19T10:01:34.953Z,1.80
2018-06-19T10:04:06.668Z,1.50
2018-06-19T10:06:38.249Z,1.10
2018-06-19T10:09:10.878Z,1.20
2018-06-19T10:11:42.541Z,1.03
2018-06-19T10:14:14.129Z,0.83
2018-06-19T10:16:45.935Z,0.97
2018-06-19T10:19:17.667Z,1.10
2018-06-19T10:21:49.254Z,1.13
2018-06-19T10:24:20.929Z,1.00
2018-06-19T10:26:52.581Z,1.20
2018-06-19T10:29:24.238Z,1.13
2018-06-19T10:31:55.884Z,1.80
2018-06-19T10:34:27.553Z,1.77
2018-06-19T10:36:59.063Z,1.97
2018-06-19T10:39:30.777Z,1.53
2018-06-19T10:42:02.418Z,1.40
2018-06-19T10:44:34.101Z,1.30
2018-06-19T10:47:05.890Z,1.37
2018-06-19T10:49:37.516Z,1.10
2018-06-19T10:52:09.208Z,1.77
2018-06-19T10:54:40.866Z,1.57
2018-06-19T10:57:12.422Z,1.37
2018-06-19T10:59:44.018Z,1.20
2018-06-19T11:02:15.549Z,1.10
2018-06-19T11:04:47.321Z,1.37
2018-06-19T11:07:22.877Z,1.33
2018-06-19T11:09:54.426Z,1.20
2018-06-19T11:12:26.024Z,1.20
2018-06-19T11:14:57.805Z,1.13
2018-06-19T11:17:29.385Z,1.07
2018-06-19T11:20:01.074Z,0.90
2018-06-19T11:22:32.730Z,1.13
2018-06-19T11:25:04.263Z,1.37
2018-06-19T11:27:35.780Z,1.40
2018-06-19T11:30:07.505Z,1.23
2018-06-19T11:32:39.195Z,1.50
2018-06-19T11:35:10.817Z,1.40
2018-06-19T11:37:42.703Z,1.10
2018-06-19T11:40:14.477Z,1.40
2018-06-19T11:42:46.064Z,1.40
2018-06-19T11:45:17.820Z,1.40
2018-06-19T11:47:49.215Z,1.30
2018-06-19T11:50:20.942Z,1.30
2018-06-19T11:52:52.589Z,1.50
2018-06-19T11:55:23.652Z,1.43
2018-06-19T11:57:55.167Z,1.50
2018-06-19T12:00:26.897Z,1.27
2018-06-19T12:02:58.450Z,1.00
2018-06-19T12:05:30.155Z,1.67
2018-06-19T12:08:01.812Z,1.40
2018-06-19T12:10:33.377Z,1.33
2018-06-19T12:13:04.885Z,1.20
2018-06-19T12:15:36.494Z,1.30
2018-06-19T12:18:08.085Z,1.10
2018-06-19T12:20:39.673Z,1.13
2018-06-19T12:23:11.348Z,1.50
2018-06-19T12:25:42.920Z,1.40
2018-06-19T12:28:14.500Z,1.80
2018-06-19T12:30:46.133Z,1.40
2018-06-19T12:33:17.813Z,1.20
2018-06-19T12:35:49.533Z,1.60
2018-06-19T12:38:21.194Z,2.00
2018-06-19T12:40:52.808Z,1.50
2018-06-19T12:43:24.487Z,1.27
2018-06-19T12:45:56.247Z,1.63
2018-06-19T12:48:27.960Z,1.50
2018-06-19T12:52:14.561Z,1.20
2018-06-19T12:55:24.871Z,1.80
2018-06-19T12:57:56.637Z,1.40
2018-06-19T13:00:28.273Z,1.07
2018-06-19T13:03:16.030Z,1.10
2018-06-19T13:06:03.968Z,1.03
2018-06-19T13:08:35.801Z,1.20
2018-06-19T13:11:07.896Z,1.80
2018-06-19T13:13:55.628Z,1.60
2018-06-19T13:16:43.344Z,1.10
2018-06-19T13:19:31.300Z,1.40
2018-06-19T13:22:02.974Z,1.00
2018-06-19T13:24:34.612Z,1.57
2018-06-19T13:27:06.199Z,1.90
2018-06-19T13:29:55.077Z,1.53
2018-06-19T13:32:26.871Z,1.73
2018-06-19T13:34:58.441Z,1.57
2018-06-19T13:37:30.143Z,2.00
2018-06-19T13:41:25.008Z,1.77
2018-06-19T13:44:14.225Z,1.37
2018-06-19T13:46:45.813Z,1.50
2018-06-19T13:49:17.545Z,1.90
2018-06-19T13:51:49.125Z,1.70
2018-06-19T13:54:20.805Z,1.30
2018-06-19T13:57:23.841Z,1.40
2018-06-19T13:59:55.463Z,1.77
2018-06-19T14:02:27.241Z,1.47
2018-06-19T14:04:59.201Z,1.30
2018-06-19T14:07:32.794Z,1.10
2018-06-19T14:10:21.891Z,1.47
2018-06-19T14:12:57.593Z,1.30
2018-06-19T14:15:30.340Z,1.60
2018-06-19T14:18:02.029Z,2.00
2018-06-19T14:20:33.715Z,1.70
2018-06-19T14:23:05.580Z,1.30
2018-06-19T14:25:37.262Z,1.80
2018-06-19T14:28:08.968Z,1.60
2018-06-19T14:30:40.678Z,1.40
2018-06-19T14:33:12.344Z,1.20
2018-06-19T14:35:44.099Z,1.63
2018-06-19T14:38:15.680Z,1.40
2018-06-19T14:40:47.248Z,1.10
2018-06-19T14:43:18.839Z,1.20
2018-06-19T14:45:50.566Z,0.80
2018-06-19T14:48:22.216Z,1.20
2018-06-19T14:50:53.938Z,1.10
2018-06-19T14:53:25.572Z,1.10
2018-06-19T14:55:57.288Z,1.10
2018-06-19T14:58:28.846Z,1.20
2018-06-19T15:01:00.411Z,1.80
2018-06-19T15:03:32.061Z,1.50
2018-06-19T15:06:03.636Z,1.60
2018-06-19T15:08:35.401Z,1.80
2018-06-19T15:11:07.218Z,1.63
2018-06-19T15:13:38.886Z,1.40
2018-06-19T15:16:10.597Z,1.10
2018-06-19T15:18:42.173Z,1.53
2018-06-19T15:21:13.952Z,1.30
2018-06-19T15:23:45.608Z,1.60
2018-06-19T15:26:17.272Z,1.20
2018-06-19T15:28:48.765Z,1.20
2018-06-19T15:31:20.481Z,0.97
2018-06-19T15:33:51.986Z,1.30
2018-06-19T15:36:23.606Z,1.40
2018-06-19T15:38:55.341Z,1.20
2018-06-19T15:41:26.920Z,1.90
2018-06-19T15:43:57.964Z,1.27
2018-06-19T15:46:29.514Z,1.80
2018-06-19T15:49:01.116Z,1.80
2018-06-19T15:51:33.173Z,1.40
2018-06-19T15:54:05.194Z,1.07
2018-06-19T15:56:36.835Z,1.43
2018-06-19T15:59:08.492Z,1.73
2018-06-19T16:01:40.108Z,1.67
2018-06-19T16:04:11.561Z,1.27
2018-06-19T16:06:43.267Z,1.70
2018-06-19T16:09:14.904Z,1.50
2018-06-19T16:11:46.498Z,1.67
2018-06-19T16:14:18.241Z,1.47
2018-06-19T16:16:49.394Z,1.40
2018-06-19T16:19:20.873Z,1.80
2018-06-19T16:21:52.585Z,1.40
2018-06-19T16:24:24.080Z,1.10
2018-06-19T16:26:55.797Z,0.90
2018-06-19T16:29:27.305Z,1.10
2018-06-19T16:31:59.007Z,1.17
2018-06-19T16:34:30.515Z,1.20
2018-06-19T16:37:02.147Z,1.30
2018-06-19T16:39:33.886Z,1.10
2018-06-19T16:42:04.970Z,1.20
2018-06-19T16:44:36.412Z,1.10
2018-06-19T16:47:08.249Z,0.90
2018-06-19T16:49:39.879Z,1.00
2018-06-19T16:52:11.543Z,1.20
2018-06-19T16:54:43.192Z,1.17
2018-06-19T16:57:14.613Z,1.07
2018-06-19T16:59:46.150Z,1.03
2018-06-19T17:02:17.784Z,1.07
2018-06-19T17:04:49.257Z,1.00
2018-06-19T17:07:20.934Z,1.10
2018-06-19T17:09:52.625Z,1.20
2018-06-19T17:12:24.241Z,0.87
2018-06-19T17:14:55.886Z,1.00
2018-06-19T17:17:27.656Z,1.10
2018-06-19T17:19:59.201Z,1.00
2018-06-19T17:22:30.931Z,0.90
2018-06-19T17:25:02.661Z,1.20
2018-06-19T17:27:34.273Z,0.90
2018-06-19T17:30:06.142Z,0.90
2018-06-19T17:32:37.729Z,0.87
2018-06-19T17:35:09.381Z,1.07
2018-06-19T17:37:40.961Z,0.90
2018-06-19T17:40:12.549Z,1.00
2018-06-19T17:42:44.153Z,1.10
2018-06-19T17:45:15.796Z,0.80
2018-06-19T17:47:47.516Z,0.73
2018-06-19T17:50:19.106Z,0.80
2018-06-19T17:52:50.705Z,0.90
2018-06-19T17:55:22.285Z,0.93
2018-06-19T17:57:53.947Z,0.93
2018-06-19T18:00:26.250Z,1.00
2018-06-19T18:02:57.837Z,1.20
2018-06-19T18:05:29.431Z,1.10
2018-06-19T18:08:01.035Z,1.30
2018-06-19T18:10:32.675Z,1.47
2018-06-19T18:13:04.234Z,1.30
2018-06-19T18:15:35.816Z,1.17
2018-06-19T18:18:07.487Z,2.27
2018-06-19T18:20:39.132Z,1.60
2018-06-19T18:23:10.794Z,1.70
2018-06-19T18:25:42.396Z,1.50
2018-06-19T18:28:14.109Z,1.30
2018-06-19T18:30:45.849Z,1.40
2018-06-19T18:33:17.491Z,1.17
2018-06-19T18:35:49.101Z,1.20
2018-06-19T18:38:20.801Z,1.00
2018-06-19T18:40:52.448Z,1.30
2018-06-19T18:43:24.045Z,1.40
2018-06-19T18:45:55.715Z,1.57
2018-06-19T18:48:27.388Z,1.23
2018-06-19T18:50:59.249Z,1.30
2018-06-19T18:53:30.858Z,1.40
2018-06-19T18:56:02.514Z,1.03
2018-06-19T18:58:34.164Z,1.10
2018-06-19T19:01:05.662Z,1.30
2018-06-19T19:03:37.367Z,1.17
2018-06-19T19:06:08.977Z,0.90
2018-06-19T19:08:40.609Z,1.10
2018-06-19T19:11:12.293Z,1.20
2018-06-19T19:13:43.991Z,1.00
2018-06-19T19:16:20.504Z,1.13
2018-06-19T19:18:57.122Z,1.03
2018-06-19T19:21:28.793Z,1.37
2018-06-19T19:24:00.253Z,1.20
2018-06-19T19:26:36.916Z,1.20
2018-06-19T19:29:13.694Z,1.00
2018-06-19T19:31:45.524Z,1.40
2018-06-19T19:34:17.275Z,1.20
2018-06-19T19:36:53.680Z,1.37
2018-06-19T19:39:28.978Z,1.10
2018-06-19T19:42:00.645Z,1.30
2018-06-19T19:44:32.386Z,1.23
2018-06-19T19:47:08.795Z,1.33
2018-06-19T19:49:40.467Z,1.10
2018-06-19T19:52:12.119Z,1.23
2018-06-19T19:54:43.780Z,1.20
2018-06-19T19:57:20.054Z,1.20
2018-06-19T19:59:51.740Z,1.20
2018-06-19T20:02:23.580Z,1.40
2018-06-19T20:04:55.272Z,1.03
2018-06-19T20:07:26.941Z,1.30
2018-06-19T20:09:58.555Z,1.70
2018-06-19T20:12:30.061Z,1.37
2018-06-19T20:15:01.660Z,1.63
2018-06-19T20:17:33.345Z,1.60
2018-06-19T20:20:06.250Z,1.73
2018-06-19T20:22:38.084Z,1.40
2018-06-19T20:25:10.109Z,1.60
2018-06-19T20:27:41.821Z,1.90
2018-06-19T20:30:13.416Z,2.40
2018-06-19T20:32:44.920Z,2.40
2018-06-19T20:35:16.638Z,2.17
2018-06-19T20:37:48.284Z,2.87
2018-06-19T20:40:19.991Z,2.13
2018-06-19T20:42:51.768Z,2.30
2018-06-19T20:45:23.745Z,2.60
2018-06-19T20:47:55.265Z,2.20
2018-06-19T20:50:26.973Z,2.30
2018-06-19T20:52:58.480Z,2.77
2018-06-19T20:55:30.234Z,1.90
2018-06-19T20:58:01.922Z,2.17
2018-06-19T21:00:33.530Z,1.83
2018-06-19T21:03:05.135Z,1.70
2018-06-19T21:05:36.813Z,2.30
2018-06-19T21:08:08.645Z,2.53
2018-06-19T21:10:40.329Z,2.67
2018-06-19T21:13:11.872Z,2.10
2018-06-19T21:15:43.608Z,1.87
2018-06-19T21:18:15.257Z,2.30
2018-06-19T21:20:46.885Z,2.00
2018-06-19T21:23:18.472Z,2.20
2018-06-19T21:25:50.072Z,1.83
2018-06-19T21:28:21.618Z,2.10
2018-06-19T21:30:53.210Z,2.13
2018-06-19T21:33:24.875Z,2.47
2018-06-19T21:35:56.575Z,2.30
2018-06-19T21:38:28.317Z,2.40
2018-06-19T21:40:59.933Z,2.30
2018-06-19T21:43:31.617Z,2.53
2018-06-19T21:46:03.214Z,2.30
2018-06-19T21:48:34.860Z,2.33
2018-06-19T21:51:06.556Z,2.47
2018-06-19T21:53:38.285Z,3.00
2018-06-19T21:56:09.874Z,2.40
2018-06-19T21:58:41.605Z,2.63
2018-06-19T22:01:13.179Z,2.80
2018-06-19T22:03:45.608Z,3.13
2018-06-19T22:06:17.387Z,2.70
2018-06-19T22:08:53.868Z,3.10
2018-06-19T22:11:25.856Z,2.53
2018-06-19T22:13:57.593Z,2.73
2018-06-19T22:16:29.170Z,2.43
2018-06-19T22:19:00.779Z,3.53
2018-06-19T22:21:32.352Z,2.97
2018-06-19T22:24:04.056Z,2.67
2018-06-19T22:26:35.988Z,3.03
2018-06-19T22:29:07.575Z,3.40
2018-06-19T22:31:39.277Z,3.77
2018-06-19T22:34:10.881Z,2.70
2018-06-19T22:36:42.469Z,2.40
2018-06-19T22:39:14.157Z,2.60
2018-06-19T22:41:45.863Z,2.63
2018-06-19T22:44:17.428Z,2.57
2018-06-19T22:46:49.017Z,2.73
2018-06-19T22:49:20.626Z,3.00
2018-06-19T22:51:52.250Z,3.03
2018-06-19T22:54:23.962Z,2.97
2018-06-19T22:56:55.561Z,2.50
2018-06-19T22:59:27.177Z,2.67
2018-06-19T23:01:58.758Z,3.03
2018-06-19T23:04:30.368Z,2.40
2018-06-19T23:07:02.061Z,2.87
2018-06-19T23:09:33.549Z,2.50
2018-06-19T23:12:05.374Z,2.60
2018-06-19T23:14:37.016Z,2.43
2018-06-19T23:17:11.449Z,2.30
2018-06-19T23:19:42.563Z,2.40
2018-06-19T23:22:14.196Z,3.10
2018-06-19T23:24:45.821Z,2.90
2018-06-19T23:27:17.302Z,2.40
2018-06-19T23:29:48.937Z,2.93
2018-06-19T23:32:20.462Z,2.27
2018-06-19T23:34:52.041Z,2.13
2018-06-19T23:37:23.578Z,2.70
2018-06-19T23:39:55.157Z,2.60
2018-06-19T23:42:26.725Z,2.50
2018-06-19T23:44:58.503Z,2.57
2018-06-19T23:47:30.077Z,2.87
2018-06-19T23:50:01.754Z,2.97
2018-06-19T23:52:33.328Z,3.03
2018-06-19T23:55:04.961Z,3.37
2018-06-19T23:57:36.495Z,3.60
